Airfield :
LOGIN :

Register | Disclaimer

   EN    FR    IT 

 










Legend :    VFR   Marginal VFR   IFR   Intensive IFR   Very Intensive IFR
Visi :
Ceiling :
>= 8 km
>= 3000ft
5 to 8 km
1000 to 3000 ft
1500m to 5 km
500 to 1000 ft
800 to 1500m
200 to 500 ft
< 800m
< 200 ft
Symbols :   Thunderstorms  Fog  Heavy snow  Heavy precipitations  Wind > 20 kt
SIGMETs :     Misc.  Thunderstorms  Icing  Turbulence  Mountain Waves  Volcanic Ashes






- Airport Elevation : 791 ft
- IATA code : KRK


EPKK - Krakow-Balice

CURRENT METAR :
  • 202130Z 27003KT 240V320 7000 NSC M02/M04 Q1020

EXPIRED METARs :
  • 202100Z VRB01KT 6000 NSC M02/M03 Q1020
  • 202030Z VRB01KT 5000 BR NSC M01/M02 Q1020
  • 202000Z VRB01KT 4500 BR NSC M01/M02 Q1020
  • 201930Z VRB01KT 5000 BR NSC M00/M01 Q1021
  • 201900Z VRB02KT 5000 BR NSC M01/M01 Q1021

TAF TAF EPKK
Valid from the 20 at 21:00 until the 21 at 21:00 UTC


202030Z 2021/2121 06004KT 4000 BR NSC
TEMPO 2021/2102 2500 BR
BECMG 2105/2107 26012KT 8000 BKN014
TEMPO 2107/2112 26015G30KT 4000 RA SNRA BR BKN008
BECMG 2113/2115 BKN020



MET'MAP, your aeronautical weather chart ! - Copyright ORBIFLY December 2007 - Disclaimer

ORBIFLY MET'MAP TEAM :

Programming & Development : Alexandra Zaïnal
Concept & original design : Baudouin d'Aumeries
Assistance for programming : Marc-Olivier Méhu
Technical & hardware support : Manuel Goepfert

Contact : metmap@orbifly.com




SOURCES & CREDITS :

   NOAA